Time;durP1;ratioP1;P1;durP2;ratioP2;P2;SDS_P1;SDS_P2;PMS_P1;PMS_P2;Temp;Humidity;BMP_temperature;BMP_pressure;BME280_temperature;BME280_humidity;BME280_pressure;Samples;Min_cycle;Max_cycle;Signal;HPM_P1;HPM_P2
2023/11/12 00:01:57;;;;;;;15.57;13.20;;;;;;;6.94;100.00;99714.81;5012848;28;20998;-78
2023/11/12 00:04:24;;;;;;;16.63;13.00;;;;;;;6.94;100.00;99711.31;5007764;28;20215;-79
2023/11/12 00:06:51;;;;;;;15.03;13.27;;;;;;;6.95;100.00;99713.00;5011941;28;20576;-79
2023/11/12 00:09:17;;;;;;;14.20;12.70;;;;;;;6.94;100.00;99714.81;5010964;28;20199;-78
2023/11/12 00:11:45;;;;;;;17.80;13.83;;;;;;;6.93;100.00;99718.41;5005996;28;20349;-79
2023/11/12 00:14:12;;;;;;;14.30;12.80;;;;;;;6.92;100.00;99711.41;5013102;28;20199;-79
2023/11/12 00:16:39;;;;;;;15.80;14.03;;;;;;;6.92;100.00;99707.91;5010171;28;20313;-78
2023/11/12 00:19:05;;;;;;;17.40;14.83;;;;;;;6.88;100.00;99715.19;5006333;28;20202;-79
2023/11/12 00:21:32;;;;;;;17.23;14.47;;;;;;;6.89;100.00;99716.88;5012921;28;20228;-79
2023/11/12 00:23:58;;;;;;;18.53;15.10;;;;;;;6.92;100.00;99715.84;5017579;28;20226;-79
2023/11/12 00:26:25;;;;;;;16.00;14.30;;;;;;;6.88;100.00;99717.84;5007383;28;20215;-80
2023/11/12 00:28:53;;;;;;;17.23;14.93;;;;;;;6.88;100.00;99717.84;5007267;28;20241;-79
2023/11/12 00:31:21;;;;;;;19.10;14.83;;;;;;;6.89;100.00;99710.75;5009316;28;20227;-79
2023/11/12 00:33:48;;;;;;;18.13;15.07;;;;;;;6.89;100.00;99724.81;5005332;28;20226;-78
2023/11/12 00:36:14;;;;;;;21.47;15.90;;;;;;;6.88;100.00;99717.84;5009208;28;20210;-78
2023/11/12 00:38:41;;;;;;;19.93;15.07;;;;;;;6.87;100.00;99721.41;5009144;28;20203;-78
2023/11/12 00:41:09;;;;;;;17.33;14.10;;;;;;;6.85;100.00;99714.53;5009955;28;20276;-78
2023/11/12 00:43:35;;;;;;;18.70;15.53;;;;;;;6.87;100.00;99723.22;5012029;28;20436;-78
2023/11/12 00:46:04;;;;;;;24.50;15.17;;;;;;;6.85;100.00;99719.81;5010291;28;20202;-79
2023/11/12 00:48:30;;;;;;;18.03;14.90;;;;;;;6.86;100.00;99722.38;5013409;28;20231;-79
2023/11/12 00:50:57;;;;;;;17.23;14.00;;;;;;;6.81;100.00;99711.22;5009087;28;20213;-78
2023/11/12 00:53:23;;;;;;;15.83;14.13;;;;;;;6.83;100.00;99722.56;5006889;28;20234;-78
2023/11/12 00:55:50;;;;;;;21.80;15.33;;;;;;;6.81;100.00;99713.84;5013147;28;20667;-78
2023/11/12 00:58:16;;;;;;;20.43;14.90;;;;;;;6.75;100.00;99713.41;5012559;28;20234;-79
2023/11/12 01:00:43;;;;;;;19.43;15.63;;;;;;;6.75;100.00;99716.91;5007332;28;20241;-78
2023/11/12 01:03:12;;;;;;;17.63;14.23;;;;;;;6.76;100.00;99713.31;5006165;28;20227;-78
2023/11/12 01:05:39;;;;;;;18.53;13.87;;;;;;;6.76;100.00;99709.81;5010024;28;20614;-78
2023/11/12 01:08:05;;;;;;;19.30;15.13;;;;;;;6.77;100.00;99711.53;5002736;28;20550;-80
2023/11/12 01:10:32;;;;;;;17.03;14.80;;;;;;;6.78;100.00;99705.28;5013726;28;20206;-79
2023/11/12 01:12:59;;;;;;;18.43;14.03;;;;;;;6.75;100.00;99711.63;5006737;28;20325;-78
2023/11/12 01:15:26;;;;;;;15.10;13.23;;;;;;;6.74;100.00;99706.41;5006979;28;20885;-80
2023/11/12 01:17:52;;;;;;;22.60;14.57;;;;;;;6.73;100.00;99699.41;5008762;28;20635;-78
2023/11/12 01:20:21;;;;;;;17.07;13.70;;;;;;;6.70;100.00;99712.84;5001322;28;20203;-80
2023/11/12 01:22:47;;;;;;;19.37;13.80;;;;;;;6.64;100.00;99711.41;5017495;28;20229;-79
2023/11/12 01:25:14;;;;;;;17.77;13.60;;;;;;;6.59;100.00;99717.00;5002774;28;20204;-79
2023/11/12 01:27:41;;;;;;;19.03;15.07;;;;;;;6.59;100.00;99713.50;5003757;28;20582;-80
2023/11/12 01:30:08;;;;;;;18.27;13.83;;;;;;;6.56;100.00;99713.69;5004513;28;20207;-78
2023/11/12 01:32:35;;;;;;;20.40;14.57;;;;;;;6.55;100.00;99706.72;5010757;28;20227;-80
2023/11/12 01:35:03;;;;;;;20.73;15.97;;;;;;;6.54;100.00;99699.72;5006409;28;20628;-78
2023/11/12 01:37:30;;;;;;;17.27;14.47;;;;;;;6.53;100.00;99698.88;5012595;28;20645;-80
2023/11/12 01:39:57;;;;;;;18.27;14.30;;;;;;;6.57;100.00;99702.19;5010078;28;20214;-79
2023/11/12 01:42:25;;;;;;;17.13;13.50;;;;;;;6.57;100.00;99696.88;5017719;28;20222;-78
2023/11/12 01:44:51;;;;;;;18.80;14.17;;;;;;;6.53;100.00;99704.16;5004380;28;20235;-78
2023/11/12 01:47:18;;;;;;;18.57;13.97;;;;;;;6.56;100.00;99708.41;5015700;28;20211;-78
2023/11/12 01:49:45;;;;;;;20.97;14.93;;;;;;;6.51;100.00;99691.97;5005154;28;20202;-78
2023/11/12 01:52:13;;;;;;;15.93;13.50;;;;;;;6.51;100.00;99702.53;5007728;28;20692;-79
2023/11/12 01:54:41;;;;;;;21.37;13.90;;;;;;;6.53;100.00;99703.31;5010412;28;20545;-80
2023/11/12 01:57:08;;;;;;;15.57;13.20;;;;;;;6.52;100.00;99701.59;5015056;28;20211;-79
2023/11/12 01:59:35;;;;;;;17.57;13.63;;;;;;;6.53;100.00;99690.94;5012273;28;20199;-80
2023/11/12 02:02:03;;;;;;;17.57;13.17;;;;;;;6.54;100.00;99695.28;5017540;28;20254;-79
2023/11/12 02:04:29;;;;;;;16.40;12.87;;;;;;;6.58;100.00;99693.28;5025190;28;20237;-79
2023/11/12 02:06:59;;;;;;;16.60;12.73;;;;;;;6.58;100.00;99682.72;5012076;28;20196;-79
2023/11/12 02:09:26;;;;;;;18.07;12.97;;;;;;;6.53;100.00;99683.00;5016344;28;20203;-80
2023/11/12 02:11:57;;;;;;;14.60;12.57;;;;;;;6.55;100.00;99696.13;5016504;28;20218;-79
2023/11/12 02:14:25;;;;;;;15.30;13.63;;;;;;;6.51;100.00;99686.66;5017233;28;20235;-81
2023/11/12 02:16:52;;;;;;;16.50;13.00;;;;;;;6.47;100.00;99688.66;5012154;28;20667;-79
2023/11/12 02:19:29;;;;;;;14.27;12.03;;;;;;;6.51;100.00;99694.59;5015771;28;20210;-79
2023/11/12 02:21:56;;;;;;;15.50;13.50;;;;;;;6.48;100.00;99694.78;5018675;28;20234;-79
2023/11/12 02:24:24;;;;;;;16.57;12.07;;;;;;;6.47;100.00;99698.38;5015449;28;20202;-79
2023/11/12 02:26:51;;;;;;;15.27;12.77;;;;;;;6.47;100.00;99698.38;5007220;28;20748;-79
2023/11/12 02:29:18;;;;;;;15.50;13.33;;;;;;;6.43;100.00;99703.03;5005782;28;20203;-79
2023/11/12 02:31:45;;;;;;;15.20;12.77;;;;;;;6.46;100.00;99704.59;5011411;28;20601;-79
2023/11/12 02:34:12;;;;;;;14.20;12.53;;;;;;;6.46;100.00;99708.09;5009714;28;20222;-79
2023/11/12 02:36:38;;;;;;;14.73;11.33;;;;;;;6.49;100.00;99707.06;5014061;28;20213;-79
2023/11/12 02:39:07;;;;;;;18.73;13.10;;;;;;;6.45;100.00;99703.75;5015511;28;20203;-79
2023/11/12 02:41:36;;;;;;;16.20;12.50;;;;;;;6.43;100.00;99703.03;5013151;28;20222;-79
2023/11/12 02:44:03;;;;;;;17.40;13.17;;;;;;;6.42;100.00;99705.78;5015726;28;20202;-80
2023/11/12 02:46:29;;;;;;;16.27;14.43;;;;;;;6.40;100.00;99710.28;5013563;28;20203;-79
2023/11/12 02:49:10;;;;;;;16.60;13.07;;;;;;;6.40;100.00;99708.50;5015538;28;20206;-79
2023/11/12 02:51:37;;;;;;;17.63;12.73;;;;;;;6.44;100.00;99714.47;5017507;28;20280;-79
2023/11/12 02:54:04;;;;;;;16.63;13.53;;;;;;;6.43;100.00;99716.25;5005053;28;20226;-79
2023/11/12 02:56:31;;;;;;;14.87;12.13;;;;;;;6.47;100.00;99714.25;5022909;28;20575;-79
2023/11/12 02:58:59;;;;;;;15.10;12.50;;;;;;;6.42;100.00;99719.84;5009754;28;20208;-79
2023/11/12 03:01:26;;;;;;;17.73;13.07;;;;;;;6.42;100.00;99713.69;5020192;28;20230;-79
2023/11/12 03:03:52;;;;;;;18.50;14.43;;;;;;;6.39;100.00;99712.09;5011780;28;20258;-79
2023/11/12 03:06:19;;;;;;;17.57;13.20;;;;;;;6.39;100.00;99719.16;5015238;28;20203;-79
2023/11/12 03:08:45;;;;;;;17.90;12.87;;;;;;;6.39;100.00;99717.38;5011850;28;20215;-80
2023/11/12 03:11:12;;;;;;;14.57;12.53;;;;;;;6.40;100.00;99715.59;5013195;28;20206;-79
2023/11/12 03:13:38;;;;;;;17.73;13.43;;;;;;;6.41;100.00;99704.91;5013201;28;20597;-79
2023/11/12 03:16:07;;;;;;;17.23;13.27;;;;;;;6.39;100.00;99712.09;5015700;28;20587;-79
2023/11/12 03:18:33;;;;;;;14.77;12.30;;;;;;;6.39;100.00;99709.44;5010454;28;20214;-79
2023/11/12 03:21:00;;;;;;;16.10;13.17;;;;;;;6.37;100.00;99716.63;5022029;28;20226;-79
2023/11/12 03:23:26;;;;;;;14.20;11.93;;;;;;;6.40;100.00;99721.72;5013615;28;20591;-79
2023/11/12 03:25:53;;;;;;;15.97;12.70;;;;;;;6.38;100.00;99720.13;5015955;28;20220;-79
2023/11/12 03:28:19;;;;;;;18.73;12.57;;;;;;;6.32;100.00;99720.47;5002841;28;20238;-79
2023/11/12 03:30:45;;;;;;;18.57;12.87;;;;;;;6.31;100.00;99716.13;5010301;28;20207;-79
2023/11/12 03:33:13;;;;;;;15.83;12.03;;;;;;;6.28;100.00;99719.81;5012113;28;21497;-79
2023/11/12 03:35:40;;;;;;;15.77;11.73;;;;;;;6.23;100.00;99716.63;5011782;28;20202;-80
2023/11/12 03:38:07;;;;;;;13.93;11.33;;;;;;;6.21;100.00;99711.41;5011602;28;20215;-79
2023/11/12 03:40:33;;;;;;;13.03;11.63;;;;;;;6.18;100.00;99708.09;5004887;28;20215;-79
2023/11/12 03:43:02;;;;;;;16.57;11.53;;;;;;;6.13;100.00;99704.88;5011904;28;20898;-79
2023/11/12 03:45:28;;;;;;;13.60;11.23;;;;;;;6.10;100.00;99710.34;5018335;28;20238;-79
2023/11/12 03:47:54;;;;;;;13.07;11.57;;;;;;;6.11;100.00;99712.88;5013169;28;20213;-79
2023/11/12 03:50:22;;;;;;;13.47;11.30;;;;;;;6.06;100.00;99706.19;5017806;28;20214;-78
2023/11/12 03:52:49;;;;;;;13.77;11.30;;;;;;;6.05;100.00;99715.91;5017571;28;20314;-78
2023/11/12 03:55:16;;;;;;;15.97;11.43;;;;;;;6.06;100.00;99719.41;5009664;28;20199;-79
2023/11/12 03:57:42;;;;;;;14.00;11.13;;;;;;;6.05;100.00;99723.00;5022048;28;20269;-79
2023/11/12 04:00:09;;;;;;;14.13;11.57;;;;;;;6.04;100.00;99731.88;5014057;28;20203;-79
2023/11/12 04:02:37;;;;;;;15.10;11.53;;;;;;;5.98;100.00;99722.50;5010367;28;20230;-79
2023/11/12 04:05:04;;;;;;;13.87;11.23;;;;;;;5.95;100.00;99727.09;5016402;28;20219;-79
2023/11/12 04:07:31;;;;;;;15.90;11.60;;;;;;;5.88;100.00;99731.91;5006968;28;20207;-79
2023/11/12 04:09:58;;;;;;;17.47;11.97;;;;;;;5.87;100.00;99725.75;5009747;28;20215;-79
2023/11/12 04:12:24;;;;;;;12.47;11.17;;;;;;;5.89;100.00;99725.69;5005094;28;20226;-79
2023/11/12 04:14:51;;;;;;;13.17;10.93;;;;;;;5.84;100.00;99731.22;5012649;28;20575;-79
2023/11/12 04:17:17;;;;;;;14.73;10.77;;;;;;;5.81;100.00;99730.53;5019861;28;20199;-79
2023/11/12 04:19:44;;;;;;;13.03;10.73;;;;;;;5.75;100.00;99726.44;5009083;28;20206;-79
2023/11/12 04:22:11;;;;;;;12.53;10.27;;;;;;;5.75;100.00;99733.53;5012437;28;20226;-79
2023/11/12 04:24:39;;;;;;;13.77;10.17;;;;;;;5.73;100.00;99730.97;5011132;28;20286;-79
2023/11/12 04:27:06;;;;;;;14.77;10.00;;;;;;;5.71;100.00;99729.38;5005711;28;20215;-79
2023/11/12 04:29:32;;;;;;;14.60;10.37;;;;;;;5.71;100.00;99732.88;5011263;28;20257;-79
2023/11/12 04:32:00;;;;;;;14.77;10.30;;;;;;;5.73;100.00;99740.72;5004098;28;20231;-79
2023/11/12 04:34:27;;;;;;;14.10;9.90;;;;;;;5.73;100.00;99738.06;5012865;28;20321;-78
2023/11/12 04:36:54;;;;;;;15.87;9.70;;;;;;;5.75;100.00;99741.44;4998498;28;20733;-79
2023/11/12 04:39:20;;;;;;;12.60;10.03;;;;;;;5.77;100.00;99734.28;5006231;28;20203;-78
2023/11/12 04:41:48;;;;;;;11.33;9.60;;;;;;;5.76;100.00;99737.88;5008952;28;20235;-78
2023/11/12 04:44:16;;;;;;;11.70;9.73;;;;;;;5.77;100.00;99750.16;5011763;28;20218;-78
2023/11/12 04:46:43;;;;;;;10.83;9.00;;;;;;;5.76;100.00;99745.78;5004129;28;20218;-80
2023/11/12 04:49:12;;;;;;;12.30;9.43;;;;;;;5.82;100.00;99743.66;5007922;28;20269;-78
2023/11/12 04:51:38;;;;;;;14.10;9.23;;;;;;;5.84;100.00;99743.56;5010858;28;20221;-79
2023/11/12 04:54:05;;;;;;;12.43;9.50;;;;;;;5.85;100.00;99740.84;5008307;28;20581;-79
2023/11/12 04:56:31;;;;;;;11.90;9.27;;;;;;;5.85;100.00;99742.63;5009182;28;20218;-78
2023/11/12 04:58:59;;;;;;;10.27;8.53;;;;;;;5.84;100.00;99748.84;5006877;28;20213;-78
2023/11/12 05:01:26;;;;;;;12.20;8.33;;;;;;;5.87;100.00;99749.53;5001927;28;20712;-78
2023/11/12 05:03:53;;;;;;;10.67;8.47;;;;;;;5.96;100.00;99750.81;5005903;28;20206;-79
2023/11/12 05:06:20;;;;;;;9.97;8.53;;;;;;;5.93;100.00;99745.69;5004405;28;20207;-79
2023/11/12 05:08:46;;;;;;;12.97;8.67;;;;;;;5.97;100.00;99744.59;5009075;28;20296;-78
2023/11/12 05:11:13;;;;;;;11.80;7.83;;;;;;;6.00;100.00;99739.13;5010563;28;20207;-79
2023/11/12 05:13:40;;;;;;;11.67;8.93;;;;;;;6.01;100.00;99737.34;5006631;28;20245;-79
2023/11/12 05:16:08;;;;;;;15.20;9.27;;;;;;;5.99;100.00;99739.22;5005065;28;20209;-78
2023/11/12 05:18:34;;;;;;;10.73;9.30;;;;;;;6.03;100.00;99744.22;5006591;28;20647;-79
2023/11/12 05:21:01;;;;;;;10.53;8.03;;;;;;;6.07;100.00;99737.84;5007906;28;20678;-79
2023/11/12 05:23:27;;;;;;;13.63;9.20;;;;;;;6.06;100.00;99737.91;5003402;28;20207;-79
2023/11/12 05:25:58;;;;;;;10.00;8.50;;;;;;;6.11;100.00;99746.41;5009742;28;20222;-79
2023/11/12 05:28:24;;;;;;;12.00;8.30;;;;;;;6.06;100.00;99751.97;5010328;28;20215;-79
2023/11/12 05:30:51;;;;;;;10.47;7.80;;;;;;;6.03;100.00;99756.59;5013715;28;20656;-79
2023/11/12 05:33:19;;;;;;;10.10;7.60;;;;;;;6.06;100.00;99756.41;5009044;28;20889;-78
2023/11/12 05:35:45;;;;;;;9.13;7.67;;;;;;;6.05;100.00;99752.94;5013639;28;20549;-79
2023/11/12 05:38:11;;;;;;;12.07;7.20;;;;;;;6.04;100.00;99758.31;5007800;28;20219;-79
2023/11/12 05:40:39;;;;;;;9.73;7.27;;;;;;;6.08;100.00;99755.41;5011340;28;20636;-78
2023/11/12 05:43:05;;;;;;;9.77;6.97;;;;;;;6.10;100.00;99756.13;5013296;28;20288;-78
2023/11/12 05:45:32;;;;;;;9.17;7.20;;;;;;;6.12;100.00;99756.88;5007325;28;20214;-79
2023/11/12 05:47:58;;;;;;;10.37;6.83;;;;;;;6.08;100.00;99755.41;5010359;28;20213;-79
2023/11/12 05:50:26;;;;;;;8.57;6.50;;;;;;;6.13;100.00;99763.88;5009057;28;20204;-79
2023/11/12 05:52:52;;;;;;;10.53;6.83;;;;;;;6.17;100.00;99765.41;5009921;28;20233;-79
2023/11/12 05:55:19;;;;;;;8.53;6.80;;;;;;;6.15;100.00;99755.84;5010416;28;20595;-79
2023/11/12 05:57:45;;;;;;;9.00;6.63;;;;;;;6.17;100.00;99760.13;5013294;28;20218;-79
2023/11/12 06:00:13;;;;;;;8.80;6.47;;;;;;;6.18;100.00;99759.19;5015048;28;20624;-79
2023/11/12 06:02:39;;;;;;;7.10;5.37;;;;;;;6.24;100.00;99761.47;5014453;28;20226;-80
2023/11/12 06:05:06;;;;;;;7.43;6.10;;;;;;;6.24;100.00;99756.19;5014611;28;20209;-79
2023/11/12 06:07:34;;;;;;;11.00;6.27;;;;;;;6.25;100.00;99764.97;5013492;28;20455;-79
2023/11/12 06:10:01;;;;;;;7.07;5.27;;;;;;;6.25;100.00;99752.59;5010879;28;20226;-79
2023/11/12 06:12:28;;;;;;;7.57;5.57;;;;;;;6.24;100.00;99757.97;5011623;28;20231;-79
2023/11/12 06:14:54;;;;;;;7.17;5.10;;;;;;;6.24;100.00;99764.13;5015496;28;20833;-79
2023/11/12 06:17:21;;;;;;;6.47;4.57;;;;;;;6.24;100.00;99773.84;5013366;28;20199;-79
2023/11/12 06:19:47;;;;;;;7.17;4.80;;;;;;;6.25;100.00;99768.47;5008547;28;20253;-80
2023/11/12 06:22:14;;;;;;;5.30;4.57;;;;;;;6.22;100.00;99771.28;5011302;28;20230;-81
2023/11/12 06:24:42;;;;;;;7.77;5.20;;;;;;;6.21;100.00;99774.88;5010191;28;20196;-80
2023/11/12 06:27:09;;;;;;;5.47;4.20;;;;;;;6.26;100.00;99772.81;5010570;28;20218;-80
2023/11/12 06:29:37;;;;;;;6.57;4.80;;;;;;;6.26;100.00;99780.75;5018186;28;20217;-80
2023/11/12 06:32:05;;;;;;;5.73;4.33;;;;;;;6.21;100.00;99777.50;5013331;28;20222;-81
2023/11/12 06:34:31;;;;;;;7.70;5.13;;;;;;;6.19;100.00;99782.03;5009726;28;20228;-81
2023/11/12 06:36:58;;;;;;;9.57;4.80;;;;;;;6.15;100.00;99775.22;5008401;28;20231;-80
2023/11/12 06:39:24;;;;;;;5.00;4.50;;;;;;;6.15;100.00;99775.22;5011381;28;20286;-81
2023/11/12 06:41:52;;;;;;;5.47;4.83;;;;;;;6.16;100.00;99789.28;5012403;28;20226;-80
2023/11/12 06:44:19;;;;;;;8.03;4.97;;;;;;;6.11;100.00;99786.91;5009690;28;20207;-81
2023/11/12 06:46:46;;;;;;;5.33;4.83;;;;;;;6.08;100.00;99789.75;5018990;28;20260;-81
2023/11/12 06:49:13;;;;;;;6.50;4.97;;;;;;;6.11;100.00;99792.19;5008812;28;20210;-81
2023/11/12 06:51:39;;;;;;;6.10;5.10;;;;;;;6.15;99.96;99795.53;5014207;28;20239;-82
2023/11/12 06:54:06;;;;;;;6.10;5.10;;;;;;;6.13;100.00;99792.97;5023359;28;20317;-81
2023/11/12 06:56:33;;;;;;;6.50;4.57;;;;;;;6.13;100.00;99803.53;5021458;28;20199;-80
2023/11/12 06:59:02;;;;;;;4.97;4.23;;;;;;;6.12;100.00;99800.97;5018645;28;20210;-81
2023/11/12 07:01:28;;;;;;;6.63;4.70;;;;;;;6.15;100.00;99795.53;5008784;28;20351;-80
2023/11/12 07:03:55;;;;;;;7.93;5.33;;;;;;;6.13;100.00;99794.75;5012292;28;20216;-81
2023/11/12 07:06:21;;;;;;;6.73;4.93;;;;;;;6.13;100.00;99797.41;5016360;28;20714;-81
2023/11/12 07:08:48;;;;;;;5.73;4.40;;;;;;;6.12;100.00;99804.47;5014559;28;20210;-82
2023/11/12 07:11:14;;;;;;;7.20;4.67;;;;;;;6.08;100.00;99791.56;5015271;28;20453;-81
2023/11/12 07:13:41;;;;;;;5.43;4.83;;;;;;;6.06;100.00;99798.72;5008316;28;20682;-82
2023/11/12 07:16:16;;;;;;;5.20;4.60;;;;;;;6.05;99.68;99808.44;5014210;28;20748;-81
2023/11/12 07:18:42;;;;;;;5.50;4.83;;;;;;;6.07;99.15;99795.13;5017696;28;20202;-81
2023/11/12 07:21:08;;;;;;;7.70;5.20;;;;;;;6.08;99.70;99802.97;5014094;28;20210;-81
2023/11/12 07:23:37;;;;;;;5.87;4.73;;;;;;;6.05;100.00;99808.44;5014918;28;20203;-81
2023/11/12 07:26:04;;;;;;;7.87;5.40;;;;;;;6.09;99.73;99814.41;5008311;28;20225;-80
2023/11/12 07:28:30;;;;;;;7.80;4.87;;;;;;;6.07;99.18;99819.78;5013291;28;20212;-81
2023/11/12 07:30:57;;;;;;;7.17;5.23;;;;;;;6.07;99.55;99817.13;5010008;28;20207;-81
2023/11/12 07:33:24;;;;;;;5.87;4.73;;;;;;;6.09;99.25;99820.50;5013393;28;20238;-81
2023/11/12 07:35:51;;;;;;;5.33;4.83;;;;;;;6.08;99.94;99818.84;5014050;28;20223;-81
2023/11/12 07:38:18;;;;;;;6.13;5.13;;;;;;;6.11;98.46;99818.63;5013030;28;20227;-80
2023/11/12 07:40:44;;;;;;;6.60;5.23;;;;;;;6.12;99.19;99824.78;5014611;28;20233;-80
2023/11/12 07:43:12;;;;;;;6.10;4.93;;;;;;;6.12;98.52;99836.19;5008988;28;20235;-81
2023/11/12 07:45:39;;;;;;;10.23;6.03;;;;;;;6.13;98.80;99832.63;5009095;28;20206;-81
2023/11/12 07:48:07;;;;;;;6.00;5.33;;;;;;;6.14;98.75;99834.31;5006957;28;20214;-81
2023/11/12 07:50:37;;;;;;;5.90;5.30;;;;;;;6.19;97.77;99836.72;5012526;28;20210;-80
2023/11/12 07:53:04;;;;;;;5.50;4.83;;;;;;;6.15;97.79;99833.38;5012378;28;20227;-80
2023/11/12 07:55:30;;;;;;;6.60;5.20;;;;;;;6.20;97.66;99839.25;5015850;28;20239;-81
2023/11/12 07:57:57;;;;;;;7.03;5.20;;;;;;;6.21;97.29;99842.75;5012508;28;20211;-80
2023/11/12 08:00:23;;;;;;;5.93;5.13;;;;;;;6.21;97.13;99840.13;5011955;28;20699;-81
2023/11/12 08:02:50;;;;;;;5.00;4.50;;;;;;;6.24;96.87;99840.78;5015183;28;20717;-81
2023/11/12 08:05:17;;;;;;;6.73;5.20;;;;;;;6.24;97.14;99837.28;5012013;28;20206;-80
2023/11/12 08:07:44;;;;;;;6.87;5.47;;;;;;;6.26;96.92;99841.56;5002659;28;20203;-81
2023/11/12 08:10:11;;;;;;;6.10;5.37;;;;;;;6.28;97.33;99846.72;5011217;28;20218;-80
2023/11/12 08:12:38;;;;;;;5.73;5.23;;;;;;;6.31;96.89;99841.25;5014157;28;20811;-80
2023/11/12 08:15:06;;;;;;;7.20;4.90;;;;;;;6.36;95.75;99847.16;5009521;28;20591;-82
2023/11/12 08:17:33;;;;;;;6.57;4.97;;;;;;;6.36;95.78;99844.50;5004160;28;20239;-81
2023/11/12 08:20:00;;;;;;;5.70;5.07;;;;;;;6.40;96.32;99845.19;5001338;28;20235;-81
2023/11/12 08:22:27;;;;;;;6.23;5.03;;;;;;;6.39;95.22;99849.63;5012886;28;20231;-80
2023/11/12 08:24:55;;;;;;;5.00;4.50;;;;;;;6.41;95.18;99852.19;5013941;28;20226;-80
2023/11/12 08:27:22;;;;;;;8.47;6.20;;;;;;;6.41;95.58;99852.19;5003601;28;20266;-81
2023/11/12 08:29:49;;;;;;;5.93;4.90;;;;;;;6.41;95.21;99862.75;5004109;28;20238;-81
2023/11/12 08:32:15;;;;;;;6.33;4.80;;;;;;;6.43;95.72;99855.59;5004046;28;20227;-81
2023/11/12 08:34:42;;;;;;;5.03;4.53;;;;;;;6.42;95.52;99853.88;5006847;28;20235;-81
2023/11/12 08:37:08;;;;;;;5.90;5.07;;;;;;;6.40;95.49;99863.69;5009296;28;20211;-81
2023/11/12 08:39:36;;;;;;;9.70;6.47;;;;;;;6.42;95.59;99859.16;5017712;28;20210;-81
2023/11/12 08:42:04;;;;;;;5.80;4.63;;;;;;;6.44;95.10;99855.50;5004747;28;20237;-80
2023/11/12 08:44:31;;;;;;;7.23;4.60;;;;;;;6.46;94.74;99869.44;5006649;28;20206;-81
2023/11/12 08:46:57;;;;;;;5.80;4.37;;;;;;;6.48;95.14;99864.06;5006037;28;20207;-81
2023/11/12 08:49:25;;;;;;;4.87;4.37;;;;;;;6.46;94.44;99866.81;5016305;28;20216;-81
2023/11/12 08:51:52;;;;;;;6.80;5.13;;;;;;;6.48;94.57;99866.72;5006316;28;20230;-81
2023/11/12 08:54:18;;;;;;;5.73;4.70;;;;;;;6.53;95.04;99872.59;5016819;28;20213;-81
2023/11/12 08:56:44;;;;;;;5.97;5.07;;;;;;;6.54;94.54;99871.66;5003256;28;20718;-80
2023/11/12 08:59:12;;;;;;;5.90;4.50;;;;;;;6.56;94.73;99873.28;5008426;28;20207;-80
2023/11/12 09:01:39;;;;;;;7.13;4.43;;;;;;;6.63;94.86;99871.09;5010856;28;20793;-81
2023/11/12 09:04:05;;;;;;;8.27;4.87;;;;;;;6.67;94.71;99875.28;5012885;28;20291;-80
2023/11/12 09:06:32;;;;;;;6.17;5.07;;;;;;;6.71;93.07;99882.09;5005570;28;20210;-81
2023/11/12 09:08:58;;;;;;;5.00;4.17;;;;;;;6.71;93.13;99884.75;5010947;28;20214;-81
2023/11/12 09:11:25;;;;;;;9.33;5.10;;;;;;;6.75;92.57;99883.63;5008859;28;20227;-81
2023/11/12 09:13:51;;;;;;;5.60;4.50;;;;;;;6.77;93.55;99888.81;5005245;28;20246;-81
2023/11/12 09:16:19;;;;;;;6.70;4.30;;;;;;;6.78;93.52;99883.44;5007338;28;20233;-82
2023/11/12 09:18:45;;;;;;;7.87;4.60;;;;;;;6.83;92.31;99897.22;5013756;28;20217;-81
2023/11/12 09:21:12;;;;;;;7.33;4.40;;;;;;;6.84;92.46;99896.28;5007100;28;20249;-81
2023/11/12 09:23:40;;;;;;;5.43;4.33;;;;;;;6.90;92.68;99890.63;5010006;28;20204;-81
2023/11/12 09:26:06;;;;;;;4.90;4.23;;;;;;;6.95;92.12;99891.22;5008940;28;20257;-81
2023/11/12 09:28:33;;;;;;;5.10;4.20;;;;;;;7.02;91.92;99891.69;5003720;28;20203;-82
2023/11/12 09:30:59;;;;;;;6.87;4.73;;;;;;;7.06;91.99;99889.69;5015690;28;20312;-81
2023/11/12 09:33:27;;;;;;;5.77;4.60;;;;;;;7.15;91.30;99886.50;5007301;28;20203;-82
2023/11/12 09:35:54;;;;;;;5.90;4.40;;;;;;;7.20;91.46;99892.34;5006505;28;20219;-81
2023/11/12 09:38:21;;;;;;;5.83;4.97;;;;;;;7.24;91.74;99907.13;5002468;28;20290;-82
2023/11/12 09:40:47;;;;;;;4.90;4.37;;;;;;;7.22;90.86;99901.91;4996489;28;20207;-81
2023/11/12 09:43:15;;;;;;;6.50;4.60;;;;;;;7.31;90.35;99904.00;5001641;28;20246;-81
2023/11/12 09:45:45;;;;;;;5.57;4.67;;;;;;;7.31;89.99;99905.81;5010765;28;20705;-82
2023/11/12 09:48:23;;;;;;;5.27;4.60;;;;;;;7.32;89.59;99910.16;4999418;28;20203;-81
2023/11/12 09:50:51;;;;;;;5.37;4.60;;;;;;;7.40;89.90;99907.88;5010554;28;20235;-81
2023/11/12 09:53:18;;;;;;;5.40;4.40;;;;;;;7.36;88.63;99906.34;5002273;28;20226;-82
2023/11/12 09:55:45;;;;;;;4.33;3.93;;;;;;;7.35;88.61;99912.59;5005530;28;20243;-83
2023/11/12 09:58:12;;;;;;;6.93;3.97;;;;;;;7.35;88.95;99904.66;5005519;28;20203;-82
2023/11/12 10:00:38;;;;;;;4.87;3.70;;;;;;;7.37;89.69;99908.06;5008622;28;20230;-82
2023/11/12 10:03:07;;;;;;;5.27;4.77;;;;;;;7.37;89.59;99910.69;5008226;28;20218;-81
2023/11/12 10:05:34;;;;;;;6.63;4.53;;;;;;;7.41;89.63;99916.66;5001761;28;20203;-82
2023/11/12 10:08:04;;;;;;;6.03;3.97;;;;;;;7.46;89.03;99907.50;5012683;28;20211;-83
2023/11/12 10:10:31;;;;;;;5.90;4.63;;;;;;;7.50;88.75;99901.06;5005218;28;20207;-83
2023/11/12 10:12:59;;;;;;;6.73;4.47;;;;;;;7.50;89.53;99897.56;5009000;28;20239;-81
2023/11/12 10:15:27;;;;;;;7.57;4.40;;;;;;;7.52;89.16;99906.28;5002385;28;20234;-82
2023/11/12 10:17:55;;;;;;;5.20;4.47;;;;;;;7.55;88.98;99911.34;5009094;28;20211;-82
2023/11/12 10:20:22;;;;;;;6.33;4.13;;;;;;;7.61;90.48;99911.84;5009044;28;20199;-81
2023/11/12 10:22:50;;;;;;;5.43;4.13;;;;;;;7.73;88.64;99904.03;5014941;28;20234;-81
2023/11/12 10:25:36;;;;;;;6.40;4.03;;;;;;;7.74;87.28;99911.06;5011932;28;20211;-81
2023/11/12 10:28:04;;;;;;;5.97;3.93;;;;;;;7.76;88.55;99904.72;5016542;28;20218;-81
2023/11/12 10:30:30;;;;;;;5.77;4.07;;;;;;;7.80;87.84;99918.63;5008518;28;20202;-82
2023/11/12 10:33:00;;;;;;;4.30;3.90;;;;;;;7.82;87.43;99909.63;5015352;28;20239;-81
2023/11/12 10:35:28;;;;;;;4.33;3.93;;;;;;;7.87;88.06;99914.66;5017465;28;20285;-81
2023/11/12 10:37:56;;;;;;;4.70;3.90;;;;;;;7.91;86.76;99913.47;5011256;28;20222;-81
2023/11/12 10:40:24;;;;;;;5.90;4.43;;;;;;;7.89;87.01;99913.56;4998657;28;20204;-81
2023/11/12 10:42:58;;;;;;;5.23;3.73;;;;;;;7.90;86.37;99912.63;5013057;28;20749;-82
2023/11/12 10:45:24;;;;;;;5.17;4.10;;;;;;;7.91;86.92;99908.19;5011881;28;20565;-81
2023/11/12 10:47:55;;;;;;;5.47;4.33;;;;;;;7.92;87.08;99908.06;5009520;28;20200;-82
2023/11/12 10:50:23;;;;;;;8.50;4.30;;;;;;;7.94;87.25;99907.97;5014875;28;20207;-82
2023/11/12 10:52:51;;;;;;;5.23;3.77;;;;;;;7.99;87.75;99909.41;5016228;28;20265;-81
2023/11/12 10:55:22;;;;;;;5.20;3.87;;;;;;;8.04;86.96;99903.81;5011846;28;20211;-81
2023/11/12 10:57:50;;;;;;;6.60;4.23;;;;;;;8.04;86.80;99908.25;5009057;28;20238;-82
2023/11/12 11:00:19;;;;;;;4.53;4.07;;;;;;;8.10;86.31;99908.69;5010113;28;20210;-81
2023/11/12 11:02:48;;;;;;;7.57;3.93;;;;;;;8.12;86.06;99911.25;5014810;28;20230;-81
2023/11/12 11:05:16;;;;;;;5.77;3.90;;;;;;;8.18;86.10;99917.03;5012580;28;20206;-81
2023/11/12 11:07:43;;;;;;;5.53;3.90;;;;;;;8.23;85.16;99908.78;5010996;28;20571;-81
2023/11/12 11:10:11;;;;;;;5.80;4.20;;;;;;;8.22;85.43;99907.91;5016323;28;20278;-82
2023/11/12 11:12:39;;;;;;;4.30;3.90;;;;;;;8.24;86.11;99907.81;5010951;28;20609;-81
2023/11/12 11:15:44;;;;;;;3.83;3.43;;;;;;;8.26;85.09;99908.53;5007380;28;20242;-81
2023/11/12 11:18:44;;;;;;;5.20;3.90;;;;;;;8.25;85.99;99907.69;5007792;28;20203;-81
2023/11/12 11:21:15;;;;;;;5.70;4.23;;;;;;;8.29;86.65;99903.88;5010460;28;20211;-81
2023/11/12 11:23:42;;;;;;;6.13;4.00;;;;;;;8.34;86.80;99908.94;5007941;28;20238;-82
2023/11/12 11:26:30;;;;;;;3.97;3.67;;;;;;;8.35;85.72;99908.00;5011032;28;20306;-81
2023/11/12 11:29:16;;;;;;;3.43;3.13;;;;;;;8.43;85.48;99903.00;5010237;28;20199;-82
2023/11/12 11:32:14;;;;;;;4.37;3.30;;;;;;;8.45;85.97;99902.91;5011232;28;20235;-82